createdAt,value
2018-12-30T00:01:15.588Z,92.25
2018-12-30T00:03:47.410Z,96.53
2018-12-30T00:06:19.182Z,90.65
2018-12-30T00:08:50.993Z,82.25
2018-12-30T00:11:22.386Z,73.57
2018-12-30T00:13:53.848Z,75.22
2018-12-30T00:16:25.281Z,74.12
2018-12-30T00:18:56.540Z,72.82
2018-12-30T00:21:27.820Z,73.15
2018-12-30T00:23:59.088Z,78.47
2018-12-30T00:26:30.397Z,69.10
2018-12-30T00:29:01.993Z,67.85
2018-12-30T00:31:33.107Z,64.07
2018-12-30T00:34:04.480Z,67.25
2018-12-30T00:36:35.686Z,70.50
2018-12-30T00:39:08.198Z,69.17
2018-12-30T00:41:39.452Z,68.22
2018-12-30T00:44:10.798Z,68.78
2018-12-30T00:46:42.003Z,70.60
2018-12-30T00:49:13.463Z,62.88
2018-12-30T00:51:45.066Z,61.75
2018-12-30T00:54:16.427Z,61.48
2018-12-30T00:56:48.114Z,56.50
2018-12-30T00:59:19.544Z,52.15
2018-12-30T01:01:50.912Z,50.05
2018-12-30T01:04:22.575Z,47.27
2018-12-30T01:06:53.964Z,46.28
2018-12-30T01:09:25.564Z,45.35
2018-12-30T01:11:57.061Z,42.75
2018-12-30T01:14:28.873Z,43.02
2018-12-30T01:17:00.226Z,43.63
2018-12-30T01:19:31.664Z,44.20
2018-12-30T01:22:02.953Z,47.62
2018-12-30T01:24:34.164Z,50.78
2018-12-30T01:27:05.875Z,52.78
2018-12-30T01:29:37.301Z,46.88
2018-12-30T01:32:08.827Z,48.87
2018-12-30T01:34:40.342Z,47.98
2018-12-30T01:37:11.717Z,50.55
2018-12-30T01:39:43.006Z,51.28
2018-12-30T01:42:14.371Z,52.05
2018-12-30T01:44:45.766Z,49.60
2018-12-30T01:47:17.442Z,48.52
2018-12-30T01:49:49.871Z,46.40
2018-12-30T01:52:21.094Z,43.63
2018-12-30T01:54:52.704Z,43.65
2018-12-30T01:57:23.949Z,44.60
2018-12-30T01:59:55.423Z,43.80
2018-12-30T02:02:26.691Z,45.03
2018-12-30T02:04:57.946Z,45.85
2018-12-30T02:07:29.136Z,45.65
2018-12-30T02:10:00.890Z,46.65
2018-12-30T02:12:32.155Z,48.63
2018-12-30T02:15:03.543Z,47.93
2018-12-30T02:17:53.467Z,49.73
2018-12-30T02:20:24.905Z,50.05
2018-12-30T02:22:56.033Z,46.73
2018-12-30T02:25:27.590Z,45.78
2018-12-30T02:27:59.029Z,46.37
2018-12-30T02:30:30.739Z,46.48
2018-12-30T02:33:02.013Z,45.78
2018-12-30T02:35:33.414Z,49.30
2018-12-30T02:38:04.723Z,50.75
2018-12-30T02:40:36.596Z,49.08
2018-12-30T02:43:07.734Z,52.55
2018-12-30T02:45:38.882Z,52.10
2018-12-30T02:48:10.343Z,49.13
2018-12-30T02:50:41.846Z,49.95
2018-12-30T02:53:13.198Z,47.93
2018-12-30T02:55:44.792Z,49.65
2018-12-30T02:58:16.120Z,48.13
2018-12-30T03:00:47.512Z,48.38
2018-12-30T03:03:18.700Z,47.43
2018-12-30T03:05:50.165Z,48.48
2018-12-30T03:08:21.488Z,48.80
2018-12-30T03:10:52.970Z,49.70
2018-12-30T03:13:24.241Z,49.63
2018-12-30T03:15:55.530Z,49.10
2018-12-30T03:18:26.868Z,49.13
2018-12-30T03:20:58.320Z,48.80
2018-12-30T03:23:29.359Z,49.45
2018-12-30T03:26:00.751Z,49.55
2018-12-30T03:28:32.037Z,46.45
2018-12-30T03:31:03.558Z,48.87
2018-12-30T03:33:34.829Z,48.08
2018-12-30T03:36:06.524Z,47.00
2018-12-30T03:38:37.693Z,47.80
2018-12-30T03:41:09.000Z,46.83
2018-12-30T03:43:40.169Z,48.05
2018-12-30T03:46:11.639Z,51.10
2018-12-30T03:48:42.867Z,50.38
2018-12-30T03:51:14.413Z,55.55
2018-12-30T03:53:45.845Z,60.48
2018-12-30T03:56:17.240Z,56.28
2018-12-30T03:58:48.635Z,58.40
2018-12-30T04:01:19.842Z,61.95
2018-12-30T04:03:51.024Z,65.50
2018-12-30T04:06:22.556Z,63.85
2018-12-30T04:08:53.966Z,63.35
2018-12-30T04:11:25.619Z,71.50
2018-12-30T04:13:56.766Z,67.87
2018-12-30T04:16:28.832Z,63.25
2018-12-30T04:19:00.279Z,62.70
2018-12-30T04:21:32.137Z,63.52
2018-12-30T04:24:03.532Z,64.10
2018-12-30T04:26:35.119Z,63.60
2018-12-30T04:29:06.392Z,64.65
2018-12-30T04:31:37.789Z,74.42
2018-12-30T04:34:09.027Z,69.30
2018-12-30T04:36:40.374Z,65.70
2018-12-30T04:39:11.699Z,70.85
2018-12-30T04:41:43.154Z,69.07
2018-12-30T04:44:14.497Z,69.70
2018-12-30T04:46:45.949Z,67.67
2018-12-30T04:49:17.160Z,69.58
2018-12-30T04:51:48.494Z,71.65
2018-12-30T04:54:19.467Z,68.97
2018-12-30T04:56:51.004Z,70.00
2018-12-30T04:59:22.155Z,72.00
2018-12-30T05:01:53.740Z,74.30
2018-12-30T05:04:24.891Z,79.87
2018-12-30T05:06:56.172Z,75.55
2018-12-30T05:09:27.302Z,78.22
2018-12-30T05:11:58.536Z,75.32
2018-12-30T05:14:29.891Z,76.35
2018-12-30T05:17:01.525Z,74.80
2018-12-30T05:19:33.177Z,68.05
2018-12-30T05:22:04.495Z,69.90
2018-12-30T05:24:35.656Z,67.72
2018-12-30T05:27:07.254Z,67.85
2018-12-30T05:29:38.768Z,68.90
2018-12-30T05:32:10.087Z,65.85
2018-12-30T05:34:41.425Z,62.05
2018-12-30T05:37:12.860Z,58.02
2018-12-30T05:39:44.220Z,51.77
2018-12-30T05:42:15.749Z,50.55
2018-12-30T05:44:47.165Z,49.53
2018-12-30T05:47:18.637Z,50.48
2018-12-30T05:49:50.329Z,48.23
2018-12-30T05:52:21.683Z,47.88
2018-12-30T05:55:04.649Z,49.03
2018-12-30T05:57:35.867Z,47.62
2018-12-30T06:00:08.417Z,50.63
2018-12-30T06:02:39.509Z,49.50
2018-12-30T06:05:10.662Z,58.33
2018-12-30T06:07:42.078Z,79.17
2018-12-30T06:10:13.420Z,64.20
2018-12-30T06:12:44.810Z,62.80
2018-12-30T06:15:27.493Z,54.60
2018-12-30T06:17:58.808Z,40.78
2018-12-30T06:20:30.180Z,39.40
2018-12-30T06:23:01.391Z,37.48
2018-12-30T06:25:33.024Z,38.55
2018-12-30T06:28:05.155Z,45.63
2018-12-30T06:30:36.595Z,38.30
2018-12-30T06:33:08.113Z,37.35
2018-12-30T06:35:40.681Z,37.65
2018-12-30T06:38:12.022Z,36.70
2018-12-30T06:40:43.254Z,41.95
2018-12-30T06:43:14.613Z,46.53
2018-12-30T06:45:46.561Z,59.03
2018-12-30T06:48:17.800Z,67.20
2018-12-30T06:50:49.737Z,64.45
2018-12-30T06:53:21.121Z,62.98
2018-12-30T06:55:52.777Z,65.90
2018-12-30T06:58:24.081Z,61.98
2018-12-30T07:00:55.425Z,61.63
2018-12-30T07:03:26.538Z,60.57
2018-12-30T07:05:57.556Z,64.20
2018-12-30T07:08:28.889Z,64.03
2018-12-30T07:11:00.382Z,61.30
2018-12-30T07:13:31.666Z,64.43
2018-12-30T07:16:02.906Z,64.30
2018-12-30T07:18:34.492Z,66.37
2018-12-30T07:21:05.686Z,68.40
2018-12-30T07:23:37.053Z,66.33
2018-12-30T07:26:08.487Z,70.20
2018-12-30T07:28:40.036Z,69.80
2018-12-30T07:31:11.317Z,76.77
2018-12-30T07:33:42.676Z,75.40
2018-12-30T07:36:13.940Z,75.83
2018-12-30T07:38:45.158Z,74.37
2018-12-30T07:41:16.884Z,69.60
2018-12-30T07:43:48.302Z,61.87
2018-12-30T07:46:19.851Z,58.87
2018-12-30T07:48:51.626Z,59.40
2018-12-30T07:51:23.095Z,56.53
2018-12-30T07:53:54.271Z,56.50
2018-12-30T07:56:25.788Z,55.23
2018-12-30T07:58:56.962Z,49.43
2018-12-30T08:01:29.397Z,47.17
2018-12-30T08:04:00.824Z,65.03
2018-12-30T08:06:32.186Z,68.80
2018-12-30T08:09:04.654Z,57.63
2018-12-30T08:11:36.047Z,46.20
2018-12-30T08:14:07.592Z,50.80
2018-12-30T08:16:39.077Z,50.90
2018-12-30T08:19:10.463Z,62.00
2018-12-30T08:21:41.989Z,58.40
2018-12-30T08:24:13.261Z,60.47
2018-12-30T08:26:44.598Z,52.63
2018-12-30T08:29:16.100Z,51.00
2018-12-30T08:31:47.698Z,48.53
2018-12-30T08:34:24.318Z,42.03
2018-12-30T08:36:56.607Z,25.90
2018-12-30T08:39:30.302Z,24.50
2018-12-30T08:42:01.851Z,22.70
2018-12-30T08:44:33.097Z,22.23
2018-12-30T08:47:04.411Z,23.33
2018-12-30T08:49:37.067Z,20.63
2018-12-30T08:52:08.585Z,13.00
2018-12-30T08:54:39.825Z,15.70
2018-12-30T08:57:11.099Z,12.93
2018-12-30T08:59:42.674Z,10.60
2018-12-30T09:02:13.945Z,9.63
2018-12-30T09:04:48.315Z,9.37
2018-12-30T09:07:20.141Z,6.60
2018-12-30T09:09:51.395Z,6.60
2018-12-30T09:12:22.699Z,21.43
2018-12-30T09:14:53.988Z,14.70
2018-12-30T09:17:25.390Z,10.40
2018-12-30T09:19:57.115Z,10.00
2018-12-30T09:22:28.566Z,4.30
2018-12-30T09:25:00.168Z,4.07
2018-12-30T09:27:32.821Z,5.40
2018-12-30T09:30:04.330Z,6.60
2018-12-30T09:32:35.489Z,9.60
2018-12-30T09:35:06.964Z,3.30
2018-12-30T09:37:38.253Z,3.80
2018-12-30T09:40:10.087Z,4.37
2018-12-30T09:42:41.364Z,5.43
2018-12-30T09:45:12.680Z,6.50
2018-12-30T09:47:44.918Z,8.40
2018-12-30T09:50:16.330Z,6.63
2018-12-30T09:52:48.181Z,6.57
2018-12-30T09:55:19.622Z,6.07
2018-12-30T09:57:50.841Z,5.70
2018-12-30T10:00:23.173Z,5.90
2018-12-30T10:02:54.670Z,5.83
2018-12-30T10:05:26.081Z,5.77
2018-12-30T10:07:57.475Z,5.90
2018-12-30T10:10:28.881Z,6.50
2018-12-30T10:13:00.081Z,6.10
2018-12-30T10:15:31.647Z,6.20
2018-12-30T10:18:03.238Z,5.77
2018-12-30T10:20:34.615Z,7.10
2018-12-30T10:23:06.504Z,5.70
2018-12-30T10:25:37.854Z,6.17
2018-12-30T10:28:09.222Z,6.27
2018-12-30T10:30:40.583Z,7.13
2018-12-30T10:33:11.799Z,11.20
2018-12-30T10:35:43.998Z,12.17
2018-12-30T10:38:15.263Z,12.53
2018-12-30T10:40:46.739Z,13.17
2018-12-30T10:43:18.400Z,13.83
2018-12-30T10:45:49.923Z,13.90
2018-12-30T10:48:21.467Z,15.13
2018-12-30T10:50:52.828Z,16.60
2018-12-30T10:53:24.060Z,18.37
2018-12-30T10:55:56.852Z,20.80
2018-12-30T10:58:28.224Z,20.60
2018-12-30T11:00:59.545Z,22.00
2018-12-30T11:03:31.863Z,22.73
2018-12-30T11:06:03.213Z,22.53
2018-12-30T11:08:35.683Z,23.07
2018-12-30T11:11:07.566Z,26.37
2018-12-30T11:13:38.837Z,26.77
2018-12-30T11:16:11.155Z,42.10
2018-12-30T11:18:43.634Z,46.03
2018-12-30T11:21:15.004Z,35.67
2018-12-30T11:23:47.219Z,36.90
2018-12-30T11:26:18.592Z,29.33
2018-12-30T11:28:50.969Z,29.30
2018-12-30T11:31:22.309Z,23.43
2018-12-30T11:33:53.785Z,39.93
2018-12-30T11:36:25.110Z,25.30
2018-12-30T11:38:56.479Z,21.87
2018-12-30T11:41:29.231Z,19.27
2018-12-30T11:44:00.929Z,17.60
2018-12-30T11:46:32.134Z,18.27
2018-12-30T11:49:04.550Z,17.30
2018-12-30T11:51:36.114Z,16.30
2018-12-30T11:54:07.282Z,16.50
2018-12-30T11:56:38.644Z,15.83
2018-12-30T11:59:10.002Z,16.47
2018-12-30T12:01:41.327Z,15.53
2018-12-30T12:04:12.748Z,15.67
2018-12-30T12:06:44.158Z,15.23
2018-12-30T12:09:15.748Z,22.90
2018-12-30T12:11:48.093Z,26.70
2018-12-30T12:14:19.361Z,27.90
2018-12-30T12:16:50.790Z,25.53
2018-12-30T12:19:21.900Z,30.37
2018-12-30T12:21:53.187Z,25.60
2018-12-30T12:24:25.325Z,27.80
2018-12-30T12:26:57.535Z,29.37
2018-12-30T12:29:29.235Z,28.27
2018-12-30T12:32:00.631Z,31.77
2018-12-30T12:34:32.122Z,38.20
2018-12-30T12:37:03.531Z,39.70
2018-12-30T12:39:35.040Z,38.37
2018-12-30T12:42:06.592Z,41.87
2018-12-30T12:44:38.089Z,47.43
2018-12-30T12:47:09.451Z,47.83
2018-12-30T12:49:41.020Z,46.80
2018-12-30T12:52:12.380Z,42.70
2018-12-30T12:54:44.008Z,48.13
2018-12-30T12:57:15.112Z,45.33
2018-12-30T12:59:46.269Z,58.37
2018-12-30T13:02:17.718Z,61.33
2018-12-30T13:04:49.199Z,48.03
2018-12-30T13:07:20.290Z,48.50
2018-12-30T13:09:51.835Z,43.03
2018-12-30T13:12:23.334Z,47.27
2018-12-30T13:14:54.560Z,64.13
2018-12-30T13:17:26.144Z,61.47
2018-12-30T13:19:57.660Z,52.47
2018-12-30T13:22:28.924Z,45.87
2018-12-30T13:25:00.342Z,48.13
2018-12-30T13:27:31.644Z,45.07
2018-12-30T13:30:03.060Z,45.40
2018-12-30T13:32:34.135Z,45.10
2018-12-30T13:35:05.581Z,46.23
2018-12-30T13:37:37.132Z,47.43
2018-12-30T13:40:08.598Z,51.20
2018-12-30T13:42:41.175Z,48.57
2018-12-30T13:45:11.658Z,49.03
2018-12-30T13:47:43.217Z,44.77
2018-12-30T13:50:14.650Z,47.93
2018-12-30T13:52:45.972Z,46.33
2018-12-30T13:55:18.530Z,47.53
2018-12-30T13:57:50.463Z,41.90
2018-12-30T14:00:21.827Z,41.73
2018-12-30T14:02:53.310Z,41.57
2018-12-30T14:05:24.624Z,38.47
2018-12-30T14:07:55.908Z,42.30
2018-12-30T14:10:28.304Z,47.17
2018-12-30T14:12:59.716Z,58.53
2018-12-30T14:15:31.076Z,77.67
2018-12-30T14:18:02.379Z,64.77
2018-12-30T14:20:33.728Z,35.20
2018-12-30T14:23:05.226Z,31.43
2018-12-30T14:25:36.629Z,27.73
2018-12-30T14:28:08.386Z,24.47
2018-12-30T14:30:39.798Z,22.13
2018-12-30T14:33:12.370Z,21.20
2018-12-30T14:35:45.086Z,19.73
2018-12-30T14:38:16.445Z,20.75
2018-12-30T14:40:48.395Z,20.72
2018-12-30T14:43:20.175Z,22.27
2018-12-30T14:45:51.558Z,28.07
2018-12-30T14:48:28.089Z,32.27
2018-12-30T14:51:01.176Z,33.92
2018-12-30T14:53:32.287Z,34.90
2018-12-30T14:56:03.644Z,29.95
2018-12-30T14:58:35.883Z,26.00
2018-12-30T15:01:14.621Z,26.85
2018-12-30T15:03:40.277Z,23.70
2018-12-30T15:06:11.836Z,26.73
2018-12-30T15:08:43.104Z,23.83
2018-12-30T15:11:14.493Z,25.65
2018-12-30T15:13:45.818Z,31.15
2018-12-30T15:16:17.310Z,29.60
2018-12-30T15:18:48.616Z,30.60
2018-12-30T15:21:20.077Z,28.05
2018-12-30T15:23:51.862Z,24.07
2018-12-30T15:26:23.522Z,38.80
2018-12-30T15:28:55.990Z,37.73
2018-12-30T15:31:27.196Z,20.80
2018-12-30T15:33:58.928Z,19.35
2018-12-30T15:36:30.233Z,23.10
2018-12-30T15:39:01.703Z,23.27
2018-12-30T15:41:34.427Z,41.10
2018-12-30T15:44:05.898Z,26.73
2018-12-30T15:46:37.343Z,27.65
2018-12-30T15:49:08.850Z,27.80
2018-12-30T15:51:40.562Z,27.20
2018-12-30T15:54:11.716Z,27.60
2018-12-30T15:56:43.150Z,27.58
2018-12-30T15:59:14.487Z,26.52
2018-12-30T16:01:46.613Z,25.60
2018-12-30T16:04:17.935Z,25.17
2018-12-30T16:06:49.194Z,25.77
2018-12-30T16:09:20.568Z,27.17
2018-12-30T16:11:52.048Z,34.63
2018-12-30T16:14:23.301Z,30.50
2018-12-30T16:16:54.554Z,27.87
2018-12-30T16:19:25.913Z,27.02
2018-12-30T16:21:57.410Z,24.52
2018-12-30T16:24:28.598Z,24.40
2018-12-30T16:26:59.842Z,24.87
2018-12-30T16:29:31.244Z,24.50
2018-12-30T16:32:02.812Z,24.63
2018-12-30T16:34:34.339Z,23.80
2018-12-30T16:37:05.594Z,23.85
2018-12-30T16:39:36.835Z,23.20
2018-12-30T16:42:08.880Z,22.75
2018-12-30T16:44:41.823Z,21.65
2018-12-30T16:47:13.693Z,20.10
2018-12-30T16:49:45.191Z,20.52
2018-12-30T16:52:16.624Z,21.80
2018-12-30T16:54:47.962Z,22.22
2018-12-30T16:57:18.987Z,21.10
2018-12-30T16:59:50.469Z,19.95
2018-12-30T17:02:22.109Z,21.65
2018-12-30T17:04:53.527Z,22.37
2018-12-30T17:07:26.169Z,25.57
2018-12-30T17:10:17.866Z,28.02
2018-12-30T17:12:48.902Z,25.90
2018-12-30T17:15:20.443Z,22.87
2018-12-30T17:17:53.427Z,22.20
2018-12-30T17:20:24.846Z,24.72
2018-12-30T17:22:56.394Z,25.95
2018-12-30T17:25:27.643Z,32.63
2018-12-30T17:27:58.949Z,35.00
2018-12-30T17:30:30.506Z,27.22
2018-12-30T17:33:02.093Z,27.60
2018-12-30T17:35:33.513Z,23.10
2018-12-30T17:38:05.010Z,21.65
2018-12-30T17:40:38.709Z,23.67
2018-12-30T17:43:09.592Z,25.43
2018-12-30T17:45:40.984Z,23.73
2018-12-30T17:48:12.667Z,22.82
2018-12-30T17:50:44.048Z,23.38
2018-12-30T17:53:15.492Z,23.00
2018-12-30T17:55:50.978Z,24.32
2018-12-30T17:58:20.749Z,24.55
2018-12-30T18:00:52.023Z,24.75
2018-12-30T18:03:23.637Z,24.00
2018-12-30T18:05:54.980Z,23.50
2018-12-30T18:08:26.493Z,22.85
2018-12-30T18:10:58.510Z,23.70
2018-12-30T18:13:29.615Z,21.55
2018-12-30T18:16:00.923Z,22.02
2018-12-30T18:18:32.392Z,21.93
2018-12-30T18:21:04.352Z,22.10
2018-12-30T18:23:35.931Z,21.23
2018-12-30T18:26:07.127Z,21.05
2018-12-30T18:28:38.726Z,21.05
2018-12-30T18:31:09.735Z,21.10
2018-12-30T18:33:41.424Z,22.13
2018-12-30T18:36:12.820Z,23.12
2018-12-30T18:38:44.212Z,23.15
2018-12-30T18:41:15.675Z,30.62
2018-12-30T18:43:47.084Z,27.05
2018-12-30T18:46:19.264Z,39.73
2018-12-30T18:48:50.751Z,34.00
2018-12-30T18:51:22.002Z,37.95
2018-12-30T18:53:53.591Z,41.08
2018-12-30T18:56:25.412Z,42.05
2018-12-30T18:58:56.805Z,38.90
2018-12-30T19:01:28.211Z,38.20
2018-12-30T19:03:59.621Z,37.55
2018-12-30T19:06:30.837Z,32.85
2018-12-30T19:09:02.363Z,31.73
2018-12-30T19:11:34.574Z,31.12
2018-12-30T19:14:05.976Z,29.57
2018-12-30T19:16:37.279Z,30.37
2018-12-30T19:19:08.655Z,29.48
2018-12-30T19:21:39.787Z,29.63
2018-12-30T19:24:11.085Z,33.05
2018-12-30T19:26:44.283Z,33.75
2018-12-30T19:29:15.735Z,30.97
2018-12-30T19:31:48.365Z,28.32
2018-12-30T19:34:20.359Z,30.32
2018-12-30T19:36:51.683Z,27.20
2018-12-30T19:39:23.430Z,26.15
2018-12-30T19:41:54.912Z,26.60
2018-12-30T19:44:26.383Z,26.33
2018-12-30T19:46:57.983Z,28.52
2018-12-30T19:49:29.098Z,31.35
2018-12-30T19:52:00.734Z,34.18
2018-12-30T19:54:32.071Z,34.13
2018-12-30T19:57:03.379Z,33.80
2018-12-30T19:59:35.102Z,33.55
2018-12-30T20:02:06.363Z,33.45
2018-12-30T20:04:40.793Z,40.43
2018-12-30T20:07:10.886Z,34.63
2018-12-30T20:09:42.242Z,31.15
2018-12-30T20:12:13.798Z,28.20
2018-12-30T20:14:45.231Z,28.60
2018-12-30T20:17:16.583Z,26.77
2018-12-30T20:19:48.188Z,27.65
2018-12-30T20:22:19.376Z,27.20
2018-12-30T20:24:50.751Z,27.93
2018-12-30T20:27:23.441Z,27.77
2018-12-30T20:29:54.934Z,27.32
2018-12-30T20:32:26.307Z,26.77
2018-12-30T20:34:57.617Z,27.65
2018-12-30T20:37:28.824Z,28.12
2018-12-30T20:40:00.975Z,28.77
2018-12-30T20:42:32.363Z,30.00
2018-12-30T20:45:04.853Z,28.70
2018-12-30T20:47:36.558Z,29.63
2018-12-30T20:50:09.177Z,29.12
2018-12-30T20:52:40.566Z,29.15
2018-12-30T20:55:12.390Z,30.70
2018-12-30T20:57:43.834Z,30.52
2018-12-30T21:00:15.614Z,28.40
2018-12-30T21:02:47.561Z,30.40
2018-12-30T21:05:19.739Z,30.08
2018-12-30T21:07:51.197Z,30.30
2018-12-30T21:10:22.741Z,39.42
2018-12-30T21:12:54.115Z,40.63
2018-12-30T21:15:25.503Z,49.58
2018-12-30T21:17:57.649Z,44.33
2018-12-30T21:20:29.154Z,44.15
2018-12-30T21:23:12.676Z,43.13
2018-12-30T21:25:44.196Z,38.85
2018-12-30T21:28:15.575Z,36.75
2018-12-30T21:30:46.922Z,37.93
2018-12-30T21:33:18.282Z,36.45
2018-12-30T21:35:49.726Z,37.50
2018-12-30T21:38:21.149Z,39.48
2018-12-30T21:40:52.389Z,39.20
2018-12-30T21:43:23.615Z,37.60
2018-12-30T21:45:54.974Z,36.98
2018-12-30T21:48:26.836Z,37.53
2018-12-30T21:50:58.392Z,35.15
2018-12-30T21:53:29.789Z,35.05
2018-12-30T21:56:01.248Z,35.52
2018-12-30T21:58:32.616Z,34.20
2018-12-30T22:01:03.910Z,34.03
2018-12-30T22:03:35.027Z,34.35
2018-12-30T22:06:07.204Z,35.63
2018-12-30T22:08:38.543Z,34.03
2018-12-30T22:11:10.321Z,36.30
2018-12-30T22:13:41.944Z,36.77
2018-12-30T22:16:13.380Z,35.50
2018-12-30T22:18:44.703Z,36.48
2018-12-30T22:21:16.140Z,37.40
2018-12-30T22:23:47.623Z,34.53
2018-12-30T22:26:19.140Z,35.38
2018-12-30T22:28:50.912Z,34.08
2018-12-30T22:31:22.521Z,33.28
2018-12-30T22:33:53.867Z,30.90
2018-12-30T22:36:25.339Z,34.43
2018-12-30T22:38:56.772Z,33.63
2018-12-30T22:41:28.176Z,33.85
2018-12-30T22:43:59.998Z,33.35
2018-12-30T22:46:31.171Z,32.60
2018-12-30T22:49:02.318Z,32.70
2018-12-30T22:51:34.323Z,32.13
2018-12-30T22:54:05.649Z,32.98
2018-12-30T22:56:37.839Z,33.20
2018-12-30T22:59:09.185Z,32.98
2018-12-30T23:01:43.131Z,32.23
2018-12-30T23:04:14.400Z,32.42
2018-12-30T23:06:45.539Z,32.30
2018-12-30T23:09:35.595Z,34.23
2018-12-30T23:12:07.208Z,32.30
2018-12-30T23:14:38.586Z,34.15
2018-12-30T23:17:10.206Z,35.25
2018-12-30T23:19:41.478Z,33.30
2018-12-30T23:22:13.534Z,35.38
2018-12-30T23:24:44.867Z,36.17
2018-12-30T23:27:17.287Z,34.53
2018-12-30T23:29:48.755Z,34.03
2018-12-30T23:32:20.097Z,36.98
2018-12-30T23:34:51.492Z,34.98
2018-12-30T23:37:23.062Z,34.60
2018-12-30T23:39:54.350Z,34.55
2018-12-30T23:42:26.518Z,34.05
2018-12-30T23:44:57.871Z,36.25
2018-12-30T23:47:29.194Z,35.80
2018-12-30T23:50:00.648Z,36.80
2018-12-30T23:52:32.125Z,36.88
2018-12-30T23:55:03.590Z,37.78
2018-12-30T23:57:34.845Z,37.45
